Aviation Digital Data Service (ADDS)

Output produced by METARs form (0720 UTC 24 March 2019)
found at http://www.aviationweather.gov/metar/data/
 
SYCJ 240500Z 04004KT 9999 SCT014 24/23 Q1014 NOSIG
TAF SYCJ 240500Z 2406/2506 VRB02KT 4000 BR FEW016 SCT038 
     BECMG 2411/2413 07014KT 9999 BKN020 
     PROB30 
     TEMPO 2415/2419 5000 SHRA BKN018